sensor_id;sensor_type;location;lat;lon;timestamp;pressure;altitude;pressure_sealevel;temperature;humidity
40205;BME280;26963;42.666;23.366;2023-03-01T00:01:41;95441.97;;;7.48;69.69
40205;BME280;26963;42.666;23.366;2023-03-01T00:04:06;95414.25;;;7.39;70.04
40205;BME280;26963;42.666;23.366;2023-03-01T00:06:32;95407.78;;;7.24;70.20
40205;BME280;26963;42.666;23.366;2023-03-01T00:08:57;95429.75;;;7.52;69.68
40205;BME280;26963;42.666;23.366;2023-03-01T00:11:28;95426.03;;;7.53;69.56
40205;BME280;26963;42.666;23.366;2023-03-01T00:13:56;95424.41;;;7.47;69.82
40205;BME280;26963;42.666;23.366;2023-03-01T00:16:28;95426.03;;;7.53;69.54
40205;BME280;26963;42.666;23.366;2023-03-01T00:18:55;95425.47;;;7.51;69.80
40205;BME280;26963;42.666;23.366;2023-03-01T00:21:21;95333.94;;;6.94;69.45
40205;BME280;26963;42.666;23.366;2023-03-01T00:23:47;95409.47;;;7.46;69.79
40205;BME280;26963;42.666;23.366;2023-03-01T00:26:14;95414.00;;;7.45;69.69
40205;BME280;26963;42.666;23.366;2023-03-01T00:28:40;95408.41;;;7.42;70.12
40205;BME280;26963;42.666;23.366;2023-03-01T00:31:11;95391.06;;;7.34;70.11
40205;BME280;26963;42.666;23.366;2023-03-01T00:33:37;95383.84;;;7.29;69.33
40205;BME280;26963;42.666;23.366;2023-03-01T00:36:03;95402.50;;;7.34;69.96
40205;BME280;26963;42.666;23.366;2023-03-01T00:38:29;95360.59;;;7.04;70.03
40205;BME280;26963;42.666;23.366;2023-03-01T00:40:55;95399.03;;;7.29;70.24
40205;BME280;26963;42.666;23.366;2023-03-01T00:43:21;95379.03;;;7.21;70.08
40205;BME280;26963;42.666;23.366;2023-03-01T00:45:46;95390.75;;;7.25;69.78
40205;BME280;26963;42.666;23.366;2023-03-01T00:48:13;95318.44;;;6.75;70.23
40205;BME280;26963;42.666;23.366;2023-03-01T00:50:38;95393.44;;;7.25;69.77
40205;BME280;26963;42.666;23.366;2023-03-01T00:53:03;95387.03;;;7.21;69.94
40205;BME280;26963;42.666;23.366;2023-03-01T00:55:30;95376.88;;;7.18;69.91
40205;BME280;26963;42.666;23.366;2023-03-01T00:57:56;95313.88;;;6.71;70.30
40205;BME280;26963;42.666;23.366;2023-03-01T01:00:21;95378.19;;;7.10;70.10
40205;BME280;26963;42.666;23.366;2023-03-01T01:02:47;95200.78;;;5.99;70.07
40205;BME280;26963;42.666;23.366;2023-03-01T01:05:13;95385.41;;;7.15;70.09
40205;BME280;26963;42.666;23.366;2023-03-01T01:07:38;95384.28;;;7.06;70.45
40205;BME280;26963;42.666;23.366;2023-03-01T01:10:04;95333.06;;;6.73;70.48
40205;BME280;26963;42.666;23.366;2023-03-01T01:12:30;95389.09;;;7.09;70.77
40205;BME280;26963;42.666;23.366;2023-03-01T01:14:56;95380.78;;;7.00;70.21
40205;BME280;26963;42.666;23.366;2023-03-01T01:17:21;95283.34;;;6.30;70.70
40205;BME280;26963;42.666;23.366;2023-03-01T01:19:47;95363.13;;;6.78;70.64
40205;BME280;26963;42.666;23.366;2023-03-01T01:22:12;95389.81;;;6.99;70.61
40205;BME280;26963;42.666;23.366;2023-03-01T01:24:38;95373.06;;;6.93;70.38
40205;BME280;26963;42.666;23.366;2023-03-01T01:27:03;95399.16;;;7.01;70.30
40205;BME280;26963;42.666;23.366;2023-03-01T01:29:29;95386.13;;;7.05;69.72
40205;BME280;26963;42.666;23.366;2023-03-01T01:31:54;95373.06;;;6.98;69.45
40205;BME280;26963;42.666;23.366;2023-03-01T01:34:21;95318.59;;;6.58;69.42
40205;BME280;26963;42.666;23.366;2023-03-01T01:36:52;95323.88;;;6.53;69.97
40205;BME280;26963;42.666;23.366;2023-03-01T01:39:21;95394.34;;;6.98;69.56
40205;BME280;26963;42.666;23.366;2023-03-01T01:41:46;95399.06;;;6.86;69.67
40205;BME280;26963;42.666;23.366;2023-03-01T01:44:25;95415.38;;;7.00;69.78
40205;BME280;26963;42.666;23.366;2023-03-01T01:47:07;95399.72;;;7.09;69.76
40205;BME280;26963;42.666;23.366;2023-03-01T01:49:42;95401.56;;;7.03;68.86
40205;BME280;26963;42.666;23.366;2023-03-01T01:52:26;95406.13;;;7.13;68.85
40205;BME280;26963;42.666;23.366;2023-03-01T01:55:12;95325.31;;;6.71;68.81
40205;BME280;26963;42.666;23.366;2023-03-01T01:57:54;95384.34;;;7.16;68.62
40205;BME280;26963;42.666;23.366;2023-03-01T02:00:27;95385.94;;;7.17;68.15
40205;BME280;26963;42.666;23.366;2023-03-01T02:03:02;95394.16;;;7.15;68.02
40205;BME280;26963;42.666;23.366;2023-03-01T02:05:36;95354.44;;;6.93;67.67
40205;BME280;26963;42.666;23.366;2023-03-01T02:08:03;95366.72;;;7.05;67.65
40205;BME280;26963;42.666;23.366;2023-03-01T02:10:32;95373.69;;;7.16;67.89
40205;BME280;26963;42.666;23.366;2023-03-01T02:12:58;95364.03;;;6.99;67.72
40205;BME280;26963;42.666;23.366;2023-03-01T02:15:25;95355.22;;;6.94;67.77
40205;BME280;26963;42.666;23.366;2023-03-01T02:17:53;95369.66;;;7.03;67.94
40205;BME280;26963;42.666;23.366;2023-03-01T02:20:33;95364.53;;;6.96;67.51
40205;BME280;26963;42.666;23.366;2023-03-01T02:23:00;95376.06;;;7.07;67.50
40205;BME280;26963;42.666;23.366;2023-03-01T02:28:20;95376.84;;;7.08;67.55
40205;BME280;26963;42.666;23.366;2023-03-01T02:30:48;95380.84;;;7.10;67.50
40205;BME280;26963;42.666;23.366;2023-03-01T02:33:35;95369.38;;;6.99;67.83
40205;BME280;26963;42.666;23.366;2023-03-01T02:36:12;95323.91;;;6.58;68.20
40205;BME280;26963;42.666;23.366;2023-03-01T02:38:40;95378.59;;;6.87;68.78
40205;BME280;26963;42.666;23.366;2023-03-01T02:41:07;95389.53;;;6.95;68.84
40205;BME280;26963;42.666;23.366;2023-03-01T02:43:34;95379.94;;;6.89;68.84
40205;BME280;26963;42.666;23.366;2023-03-01T02:46:06;95322.88;;;6.64;68.64
40205;BME280;26963;42.666;23.366;2023-03-01T02:48:44;95370.38;;;6.93;69.15
40205;BME280;26963;42.666;23.366;2023-03-01T02:51:45;95378.63;;;6.92;68.93
40205;BME280;26963;42.666;23.366;2023-03-01T02:56:54;95367.66;;;6.78;69.51
40205;BME280;26963;42.666;23.366;2023-03-01T02:59:24;95379.44;;;6.92;69.00
40205;BME280;26963;42.666;23.366;2023-03-01T03:01:50;95383.09;;;6.86;69.17
40205;BME280;26963;42.666;23.366;2023-03-01T03:04:17;95381.00;;;6.88;69.09
40205;BME280;26963;42.666;23.366;2023-03-01T03:06:48;95364.19;;;6.82;69.03
40205;BME280;26963;42.666;23.366;2023-03-01T03:09:15;95380.97;;;6.83;69.03
40205;BME280;26963;42.666;23.366;2023-03-01T03:11:41;95366.34;;;6.80;69.27
40205;BME280;26963;42.666;23.366;2023-03-01T03:14:13;95381.53;;;6.90;69.40
40205;BME280;26963;42.666;23.366;2023-03-01T03:16:47;95330.34;;;6.67;69.21
40205;BME280;26963;42.666;23.366;2023-03-01T03:19:13;95381.03;;;6.93;69.07
40205;BME280;26963;42.666;23.366;2023-03-01T03:21:38;95365.56;;;6.90;69.24
40205;BME280;26963;42.666;23.366;2023-03-01T03:24:04;95383.72;;;6.98;69.11
40205;BME280;26963;42.666;23.366;2023-03-01T03:26:31;95221.97;;;5.94;69.10
40205;BME280;26963;42.666;23.366;2023-03-01T03:28:56;95385.31;;;6.99;68.87
40205;BME280;26963;42.666;23.366;2023-03-01T03:31:22;95386.94;;;7.00;68.83
40205;BME280;26963;42.666;23.366;2023-03-01T03:33:48;95392.50;;;7.04;68.79
40205;BME280;26963;42.666;23.366;2023-03-01T03:36:22;95384.22;;;6.95;68.24
40205;BME280;26963;42.666;23.366;2023-03-01T03:38:48;95332.19;;;6.62;68.50
40205;BME280;26963;42.666;23.366;2023-03-01T03:41:15;95377.31;;;6.94;68.19
40205;BME280;26963;42.666;23.366;2023-03-01T03:43:43;95397.25;;;6.92;68.78
40205;BME280;26963;42.666;23.366;2023-03-01T03:46:10;95387.88;;;6.84;69.12
40205;BME280;26963;42.666;23.366;2023-03-01T03:48:41;95320.56;;;6.35;69.00
40205;BME280;26963;42.666;23.366;2023-03-01T03:51:13;95382.44;;;6.63;69.43
40205;BME280;26963;42.666;23.366;2023-03-01T03:53:39;95378.44;;;6.61;69.46
40205;BME280;26963;42.666;23.366;2023-03-01T03:56:05;95323.09;;;6.15;69.46
40205;BME280;26963;42.666;23.366;2023-03-01T03:58:31;95357.31;;;6.44;69.61
40205;BME280;26963;42.666;23.366;2023-03-01T04:00:57;95394.66;;;6.64;69.90
40205;BME280;26963;42.666;23.366;2023-03-01T04:03:25;95311.38;;;6.11;69.78
40205;BME280;26963;42.666;23.366;2023-03-01T04:05:51;95322.66;;;6.28;69.83
40205;BME280;26963;42.666;23.366;2023-03-01T04:08:22;95401.38;;;6.72;70.05
40205;BME280;26963;42.666;23.366;2023-03-01T04:10:50;95394.75;;;6.75;69.58
40205;BME280;26963;42.666;23.366;2023-03-01T04:13:19;95396.13;;;6.82;69.58
40205;BME280;26963;42.666;23.366;2023-03-01T04:15:46;95381.41;;;6.69;69.22
40205;BME280;26963;42.666;23.366;2023-03-01T04:18:13;95409.69;;;6.81;69.35
40205;BME280;26963;42.666;23.366;2023-03-01T04:20:39;95284.72;;;6.00;69.71
40205;BME280;26963;42.666;23.366;2023-03-01T04:23:07;95397.94;;;6.77;69.64
40205;BME280;26963;42.666;23.366;2023-03-01T04:25:40;95379.25;;;6.61;69.50
40205;BME280;26963;42.666;23.366;2023-03-01T04:28:07;95378.69;;;6.59;69.82
40205;BME280;26963;42.666;23.366;2023-03-01T04:30:32;95406.47;;;6.79;70.02
40205;BME280;26963;42.666;23.366;2023-03-01T04:33:05;95389.16;;;6.76;69.57
40205;BME280;26963;42.666;23.366;2023-03-01T04:35:32;95353.16;;;6.58;69.31
40205;BME280;26963;42.666;23.366;2023-03-01T04:37:58;95307.22;;;6.25;69.37
40205;BME280;26963;42.666;23.366;2023-03-01T04:40:23;95331.78;;;6.43;69.06
40205;BME280;26963;42.666;23.366;2023-03-01T04:42:49;95396.41;;;6.86;69.07
40205;BME280;26963;42.666;23.366;2023-03-01T04:45:14;95338.22;;;6.52;68.66
40205;BME280;26963;42.666;23.366;2023-03-01T04:47:41;95281.66;;;6.19;69.03
40205;BME280;26963;42.666;23.366;2023-03-01T04:50:09;95309.41;;;6.33;68.69
40205;BME280;26963;42.666;23.366;2023-03-01T04:52:35;95341.19;;;6.61;69.02
40205;BME280;26963;42.666;23.366;2023-03-01T04:55:01;95387.88;;;6.84;69.45
40205;BME280;26963;42.666;23.366;2023-03-01T04:57:27;95386.28;;;6.83;69.28
40205;BME280;26963;42.666;23.366;2023-03-01T04:59:52;95393.97;;;6.79;69.50
40205;BME280;26963;42.666;23.366;2023-03-01T05:02:20;95387.03;;;6.73;69.53
40205;BME280;26963;42.666;23.366;2023-03-01T05:04:46;95389.94;;;6.72;70.10
40205;BME280;26963;42.666;23.366;2023-03-01T05:07:11;95381.38;;;6.64;69.81
40205;BME280;26963;42.666;23.366;2023-03-01T05:09:38;95362.69;;;6.54;69.99
40205;BME280;26963;42.666;23.366;2023-03-01T05:12:04;95375.81;;;6.66;69.59
40205;BME280;26963;42.666;23.366;2023-03-01T05:14:30;95399.31;;;6.79;69.43
40205;BME280;26963;42.666;23.366;2023-03-01T05:16:55;95337.66;;;6.45;69.77
40205;BME280;26963;42.666;23.366;2023-03-01T05:19:29;95406.56;;;6.89;69.38
40205;BME280;26963;42.666;23.366;2023-03-01T05:21:56;95395.09;;;6.89;68.73
40205;BME280;26963;42.666;23.366;2023-03-01T05:24:34;95399.69;;;6.98;68.88
40205;BME280;26963;42.666;23.366;2023-03-01T05:27:01;95378.88;;;6.90;68.72
40205;BME280;26963;42.666;23.366;2023-03-01T05:29:28;95394.41;;;7.09;68.47
40205;BME280;26963;42.666;23.366;2023-03-01T05:31:56;95368.22;;;6.90;68.50
40205;BME280;26963;42.666;23.366;2023-03-01T05:34:32;95378.44;;;7.09;67.64
40205;BME280;26963;42.666;23.366;2023-03-01T05:36:58;95368.03;;;7.02;67.90
40205;BME280;26963;42.666;23.366;2023-03-01T05:39:26;95325.59;;;6.75;67.53
40205;BME280;26963;42.666;23.366;2023-03-01T05:41:53;95399.75;;;7.14;67.72
40205;BME280;26963;42.666;23.366;2023-03-01T05:44:19;95412.31;;;7.24;67.27
40205;BME280;26963;42.666;23.366;2023-03-01T05:46:44;95400.28;;;7.11;67.04
40205;BME280;26963;42.666;23.366;2023-03-01T05:49:11;95390.97;;;7.13;67.39
40205;BME280;26963;42.666;23.366;2023-03-01T05:51:42;95395.03;;;7.26;67.34
40205;BME280;26963;42.666;23.366;2023-03-01T05:54:11;95376.88;;;7.18;66.85
40205;BME280;26963;42.666;23.366;2023-03-01T05:56:36;95405.72;;;7.37;66.91
40205;BME280;26963;42.666;23.366;2023-03-01T05:59:04;95359.25;;;7.07;66.56
40205;BME280;26963;42.666;23.366;2023-03-01T06:01:33;95353.34;;;6.89;66.49
40205;BME280;26963;42.666;23.366;2023-03-01T06:03:59;95420.56;;;7.22;67.14
40205;BME280;26963;42.666;23.366;2023-03-01T06:06:25;95415.13;;;7.01;67.82
40205;BME280;26963;42.666;23.366;2023-03-01T06:08:52;95424.09;;;6.90;68.07
40205;BME280;26963;42.666;23.366;2023-03-01T06:11:18;95417.59;;;6.71;68.48
40205;BME280;26963;42.666;23.366;2023-03-01T06:13:44;95430.88;;;6.71;68.90
40205;BME280;26963;42.666;23.366;2023-03-01T06:16:10;95441.44;;;6.60;69.83
40205;BME280;26963;42.666;23.366;2023-03-01T06:18:37;95429.63;;;6.46;70.24
40205;BME280;26963;42.666;23.366;2023-03-01T06:21:05;95381.22;;;6.11;70.42
40205;BME280;26963;42.666;23.366;2023-03-01T06:23:31;95366.03;;;6.07;70.49
40205;BME280;26963;42.666;23.366;2023-03-01T06:25:57;95422.41;;;6.41;70.35
40205;BME280;26963;42.666;23.366;2023-03-01T06:28:22;95443.50;;;6.53;70.85
40205;BME280;26963;42.666;23.366;2023-03-01T06:30:49;95387.97;;;6.24;70.71
40205;BME280;26963;42.666;23.366;2023-03-01T06:33:15;95434.47;;;6.54;70.78
40205;BME280;26963;42.666;23.366;2023-03-01T06:35:41;95419.03;;;6.51;70.44
40205;BME280;26963;42.666;23.366;2023-03-01T06:38:07;95431.16;;;6.69;70.19
40205;BME280;26963;42.666;23.366;2023-03-01T06:40:32;95368.41;;;6.35;70.20
40205;BME280;26963;42.666;23.366;2023-03-01T06:43:00;95444.84;;;6.88;69.83
40205;BME280;26963;42.666;23.366;2023-03-01T06:45:26;95458.66;;;6.90;69.34
40205;BME280;26963;42.666;23.366;2023-03-01T06:47:52;95390.63;;;6.57;69.73
40205;BME280;26963;42.666;23.366;2023-03-01T06:50:18;95454.44;;;6.89;68.97
40205;BME280;26963;42.666;23.366;2023-03-01T06:52:44;95433.16;;;6.89;68.94
40205;BME280;26963;42.666;23.366;2023-03-01T06:55:12;95410.63;;;6.64;69.41
40205;BME280;26963;42.666;23.366;2023-03-01T06:57:39;95426.66;;;6.75;69.28
40205;BME280;26963;42.666;23.366;2023-03-01T07:00:05;95405.28;;;6.59;69.00
40205;BME280;26963;42.666;23.366;2023-03-01T07:02:32;95431.91;;;6.64;68.95
40205;BME280;26963;42.666;23.366;2023-03-01T07:04:57;95415.31;;;6.52;70.02
40205;BME280;26963;42.666;23.366;2023-03-01T07:07:23;95431.09;;;6.64;69.13
40205;BME280;26963;42.666;23.366;2023-03-01T07:09:49;95400.38;;;6.46;69.21
40205;BME280;26963;42.666;23.366;2023-03-01T07:12:15;95378.69;;;6.27;69.18
40205;BME280;26963;42.666;23.366;2023-03-01T07:14:40;95262.56;;;5.57;69.61
40205;BME280;26963;42.666;23.366;2023-03-01T07:17:06;95222.56;;;5.36;69.57
40205;BME280;26963;42.666;23.366;2023-03-01T07:19:32;95407.97;;;6.64;69.06
40205;BME280;26963;42.666;23.366;2023-03-01T07:22:11;95444.28;;;6.86;69.06
40205;BME280;26963;42.666;23.366;2023-03-01T07:24:43;95429.16;;;6.87;68.92
40205;BME280;26963;42.666;23.366;2023-03-01T07:27:08;95421.56;;;6.68;69.13
40205;BME280;26963;42.666;23.366;2023-03-01T07:29:34;95426.72;;;6.85;68.82
40205;BME280;26963;42.666;23.366;2023-03-01T07:32:02;95430.72;;;6.88;68.65
40205;BME280;26963;42.666;23.366;2023-03-01T07:34:28;95423.81;;;6.87;68.36
40205;BME280;26963;42.666;23.366;2023-03-01T07:36:54;95309.63;;;6.27;67.82
40205;BME280;26963;42.666;23.366;2023-03-01T07:39:19;95265.59;;;5.98;67.65
40205;BME280;26963;42.666;23.366;2023-03-01T07:41:45;95420.34;;;6.86;68.17
40205;BME280;26963;42.666;23.366;2023-03-01T07:44:10;95405.25;;;6.97;67.61
40205;BME280;26963;42.666;23.366;2023-03-01T07:46:36;95424.22;;;7.11;67.48
40205;BME280;26963;42.666;23.366;2023-03-01T07:49:01;95397.34;;;7.07;67.15
40205;BME280;26963;42.666;23.366;2023-03-01T07:51:27;95409.97;;;7.32;66.28
40205;BME280;26963;42.666;23.366;2023-03-01T07:53:53;95362.00;;;7.17;65.73
40205;BME280;26963;42.666;23.366;2023-03-01T07:56:18;95351.38;;;7.22;64.84
40205;BME280;26963;42.666;23.366;2023-03-01T07:58:45;95397.81;;;7.62;64.78
40205;BME280;26963;42.666;23.366;2023-03-01T08:01:13;95409.09;;;7.90;64.57
40205;BME280;26963;42.666;23.366;2023-03-01T08:03:39;95414.47;;;8.06;63.91
40205;BME280;26963;42.666;23.366;2023-03-01T08:06:06;95406.50;;;8.16;62.88
40205;BME280;26963;42.666;23.366;2023-03-01T08:08:33;95384.06;;;8.07;62.75
40205;BME280;26963;42.666;23.366;2023-03-01T08:11:00;95401.16;;;8.26;62.21
40205;BME280;26963;42.666;23.366;2023-03-01T08:13:26;95413.44;;;8.22;62.03
40205;BME280;26963;42.666;23.366;2023-03-01T08:15:52;95392.63;;;8.14;62.81
40205;BME280;26963;42.666;23.366;2023-03-01T08:18:19;95303.53;;;7.53;62.44
40205;BME280;26963;42.666;23.366;2023-03-01T08:20:45;95388.59;;;8.01;62.96
40205;BME280;26963;42.666;23.366;2023-03-01T08:23:11;95395.00;;;8.00;63.31
40205;BME280;26963;42.666;23.366;2023-03-01T08:25:37;95296.31;;;7.38;63.21
40205;BME280;26963;42.666;23.366;2023-03-01T08:28:03;95403.28;;;8.09;63.06
40205;BME280;26963;42.666;23.366;2023-03-01T08:30:28;95353.13;;;7.85;62.68
40205;BME280;26963;42.666;23.366;2023-03-01T08:32:54;95413.66;;;8.21;61.73
40205;BME280;26963;42.666;23.366;2023-03-01T08:35:21;95265.69;;;7.25;61.47
40205;BME280;26963;42.666;23.366;2023-03-01T08:37:47;95377.69;;;8.08;61.02
40205;BME280;26963;42.666;23.366;2023-03-01T08:40:13;95403.56;;;8.18;61.04
40205;BME280;26963;42.666;23.366;2023-03-01T08:42:40;95401.66;;;8.13;60.48
40205;BME280;26963;42.666;23.366;2023-03-01T08:45:07;95401.66;;;8.08;61.13
40205;BME280;26963;42.666;23.366;2023-03-01T08:47:33;95389.94;;;7.93;60.83
40205;BME280;26963;42.666;23.366;2023-03-01T08:49:59;95372.84;;;7.84;60.78
40205;BME280;26963;42.666;23.366;2023-03-01T08:52:25;95419.00;;;8.15;60.66
40205;BME280;26963;42.666;23.366;2023-03-01T08:54:52;95246.44;;;7.02;60.07
40205;BME280;26963;42.666;23.366;2023-03-01T08:57:18;95388.31;;;7.87;59.46
40205;BME280;26963;42.666;23.366;2023-03-01T08:59:43;95402.19;;;7.89;59.02
40205;BME280;26963;42.666;23.366;2023-03-01T09:02:16;95424.53;;;7.78;62.28
40205;BME280;26963;42.666;23.366;2023-03-01T09:04:42;95398.94;;;7.77;61.29
40205;BME280;26963;42.666;23.366;2023-03-01T09:07:08;95395.22;;;7.78;61.67
40205;BME280;26963;42.666;23.366;2023-03-01T09:09:34;95338.38;;;7.31;61.90
40205;BME280;26963;42.666;23.366;2023-03-01T09:12:00;95384.00;;;7.65;61.97
40205;BME280;26963;42.666;23.366;2023-03-01T09:14:27;95361.03;;;7.44;62.27
40205;BME280;26963;42.666;23.366;2023-03-01T09:16:53;95345.00;;;7.28;62.62
40205;BME280;26963;42.666;23.366;2023-03-01T09:19:18;95409.31;;;7.73;62.10
40205;BME280;26963;42.666;23.366;2023-03-01T09:21:44;95409.59;;;7.77;62.67
40205;BME280;26963;42.666;23.366;2023-03-01T09:24:22;95402.19;;;7.89;62.23
40205;BME280;26963;42.666;23.366;2023-03-01T09:26:49;95389.66;;;7.90;61.79
40205;BME280;26963;42.666;23.366;2023-03-01T09:29:15;95340.53;;;7.49;62.44
40205;BME280;26963;42.666;23.366;2023-03-01T09:31:42;95398.97;;;7.87;61.90
40205;BME280;26963;42.666;23.366;2023-03-01T09:34:09;95376.56;;;7.73;61.55
40205;BME280;26963;42.666;23.366;2023-03-01T09:36:35;95224.53;;;6.75;61.76
40205;BME280;26963;42.666;23.366;2023-03-01T09:39:01;95355.44;;;7.45;61.98
40205;BME280;26963;42.666;23.366;2023-03-01T09:41:49;95403.19;;;7.73;62.40
40205;BME280;26963;42.666;23.366;2023-03-01T09:44:32;95374.88;;;7.51;62.44
40205;BME280;26963;42.666;23.366;2023-03-01T09:46:59;95335.94;;;7.29;63.00
40205;BME280;26963;42.666;23.366;2023-03-01T09:49:36;95357.88;;;7.57;62.65
40205;BME280;26963;42.666;23.366;2023-03-01T09:53:09;95375.47;;;7.68;62.69
40205;BME280;26963;42.666;23.366;2023-03-01T09:55:14;95381.63;;;7.74;62.55
40205;BME280;26963;42.666;23.366;2023-03-01T09:57:56;95389.84;;;7.67;62.88
40205;BME280;26963;42.666;23.366;2023-03-01T10:03:13;95377.09;;;7.80;62.90
40205;BME280;26963;42.666;23.366;2023-03-01T10:06:09;95379.25;;;7.93;62.51
40205;BME280;26963;42.666;23.366;2023-03-01T10:11:05;95290.22;;;7.48;62.81
40205;BME280;26963;42.666;23.366;2023-03-01T10:13:51;95367.84;;;8.03;62.48
40205;BME280;26963;42.666;23.366;2023-03-01T10:16:53;95365.41;;;8.07;61.81
40205;BME280;26963;42.666;23.366;2023-03-01T10:19:27;95369.16;;;8.11;61.69
40205;BME280;26963;42.666;23.366;2023-03-01T10:21:58;95371.84;;;8.16;61.62
40205;BME280;26963;42.666;23.366;2023-03-01T10:24:26;95336.63;;;8.19;61.20
40205;BME280;26963;42.666;23.366;2023-03-01T10:26:57;95333.97;;;8.35;60.24
40205;BME280;26963;42.666;23.366;2023-03-01T10:29:31;95340.91;;;8.41;60.91
40205;BME280;26963;42.666;23.366;2023-03-01T10:31:59;95340.38;;;8.39;60.29
40205;BME280;26963;42.666;23.366;2023-03-01T10:34:32;95287.59;;;8.30;60.18
40205;BME280;26963;42.666;23.366;2023-03-01T10:37:18;95319.06;;;8.49;59.56
40205;BME280;26963;42.666;23.366;2023-03-01T10:40:07;95305.72;;;8.59;58.79
40205;BME280;26963;42.666;23.366;2023-03-01T10:42:37;95302.50;;;8.73;59.02
40205;BME280;26963;42.666;23.366;2023-03-01T10:45:38;95328.00;;;9.05;57.80
40205;BME280;26963;42.666;23.366;2023-03-01T10:50:40;95332.59;;;8.89;58.27
40205;BME280;26963;42.666;23.366;2023-03-01T10:56:00;95346.22;;;8.77;58.80
40205;BME280;26963;42.666;23.366;2023-03-01T10:58:27;95307.81;;;8.78;58.78
40205;BME280;26963;42.666;23.366;2023-03-01T11:01:01;95332.81;;;8.97;58.44
40205;BME280;26963;42.666;23.366;2023-03-01T11:03:35;95307.78;;;8.83;57.70
40205;BME280;26963;42.666;23.366;2023-03-01T11:08:45;95326.69;;;9.02;58.31
40205;BME280;26963;42.666;23.366;2023-03-01T11:13:53;95326.94;;;9.06;58.35
40205;BME280;26963;42.666;23.366;2023-03-01T11:16:35;95329.56;;;9.16;58.35
40205;BME280;26963;42.666;23.366;2023-03-01T11:21:40;95324.25;;;9.11;57.39
40205;BME280;26963;42.666;23.366;2023-03-01T11:24:10;95310.69;;;8.97;57.15
40205;BME280;26963;42.666;23.366;2023-03-01T11:26:40;95318.44;;;8.93;57.49
40205;BME280;26963;42.666;23.366;2023-03-01T11:31:59;95321.16;;;8.73;58.45
40205;BME280;26963;42.666;23.366;2023-03-01T11:37:28;95246.00;;;8.50;58.28
40205;BME280;26963;42.666;23.366;2023-03-01T11:44:59;95277.66;;;8.77;59.00
40205;BME280;26963;42.666;23.366;2023-03-01T11:50:16;95191.06;;;8.39;59.28
40205;BME280;26963;42.666;23.366;2023-03-01T12:01:51;95263.50;;;8.82;59.02
40205;BME280;26963;42.666;23.366;2023-03-01T12:17:51;95124.94;;;8.96;55.88
40205;BME280;26963;42.666;23.366;2023-03-01T12:29:24;95221.44;;;9.58;55.81
40205;BME280;26963;42.666;23.366;2023-03-01T12:35:38;95268.50;;;9.89;56.11
40205;BME280;26963;42.666;23.366;2023-03-01T12:51:37;95239.56;;;9.67;56.63
40205;BME280;26963;42.666;23.366;2023-03-01T12:54:15;95237.94;;;9.71;56.40
40205;BME280;26963;42.666;23.366;2023-03-01T12:56:41;95240.59;;;9.71;56.41
40205;BME280;26963;42.666;23.366;2023-03-01T13:07:19;95264.44;;;9.96;55.66
40205;BME280;26963;42.666;23.366;2023-03-01T13:18:00;95260.88;;;9.77;56.24
40205;BME280;26963;42.666;23.366;2023-03-01T13:23:25;95275.88;;;9.68;56.85
40205;BME280;26963;42.666;23.366;2023-03-01T13:26:04;95270.03;;;9.66;56.98
40205;BME280;26963;42.666;23.366;2023-03-01T13:36:11;95221.91;;;9.31;56.98
40205;BME280;26963;42.666;23.366;2023-03-01T13:38:58;95190.97;;;9.25;56.43
40205;BME280;26963;42.666;23.366;2023-03-01T13:41:57;95246.25;;;9.64;56.17
40205;BME280;26963;42.666;23.366;2023-03-01T13:49:42;95189.63;;;9.27;56.40
40205;BME280;26963;42.666;23.366;2023-03-01T13:52:35;95251.38;;;9.60;56.41
40205;BME280;26963;42.666;23.366;2023-03-01T13:57:39;95236.44;;;9.54;57.00
40205;BME280;26963;42.666;23.366;2023-03-01T14:00:06;95246.47;;;9.73;56.84
40205;BME280;26963;42.666;23.366;2023-03-01T14:02:31;95181.00;;;9.36;56.73
40205;BME280;26963;42.666;23.366;2023-03-01T14:04:59;95244.50;;;9.84;57.36
40205;BME280;26963;42.666;23.366;2023-03-01T14:07:26;95229.34;;;9.74;56.92
40205;BME280;26963;42.666;23.366;2023-03-01T14:10:01;95164.53;;;9.23;56.85
40205;BME280;26963;42.666;23.366;2023-03-01T14:15:29;95249.75;;;9.59;57.89
40205;BME280;26963;42.666;23.366;2023-03-01T14:20:29;95245.25;;;9.55;57.99
40205;BME280;26963;42.666;23.366;2023-03-01T14:23:01;95230.13;;;9.35;58.59
40205;BME280;26963;42.666;23.366;2023-03-01T14:30:47;95202.75;;;9.19;58.50
40205;BME280;26963;42.666;23.366;2023-03-01T14:33:32;95226.75;;;9.24;59.54
40205;BME280;26963;42.666;23.366;2023-03-01T14:36:02;95090.91;;;8.12;60.69
40205;BME280;26963;42.666;23.366;2023-03-01T14:38:44;95249.50;;;9.11;60.74
40205;BME280;26963;42.666;23.366;2023-03-01T14:41:14;95240.50;;;8.91;61.14
40205;BME280;26963;42.666;23.366;2023-03-01T14:43:45;95242.66;;;8.84;60.88
40205;BME280;26963;42.666;23.366;2023-03-01T14:46:37;95246.22;;;8.64;59.25
40205;BME280;26963;42.666;23.366;2023-03-01T14:51:46;95202.34;;;8.10;63.70
40205;BME280;26963;42.666;23.366;2023-03-01T14:56:50;95238.00;;;8.24;63.99
40205;BME280;26963;42.666;23.366;2023-03-01T14:59:23;95243.34;;;8.19;64.56
40205;BME280;26963;42.666;23.366;2023-03-01T15:01:51;95217.25;;;8.11;64.37
40205;BME280;26963;42.666;23.366;2023-03-01T15:04:19;95224.16;;;8.22;63.91
40205;BME280;26963;42.666;23.366;2023-03-01T15:06:50;95234.81;;;8.12;63.13
40205;BME280;26963;42.666;23.366;2023-03-01T15:09:19;95068.19;;;6.87;64.84
40205;BME280;26963;42.666;23.366;2023-03-01T15:11:46;95243.38;;;8.04;64.58
40205;BME280;26963;42.666;23.366;2023-03-01T15:14:42;95225.78;;;7.92;65.78
40205;BME280;26963;42.666;23.366;2023-03-01T15:19:52;95235.38;;;8.09;64.76
40205;BME280;26963;42.666;23.366;2023-03-01T15:22:19;95203.44;;;7.88;64.92
40205;BME280;26963;42.666;23.366;2023-03-01T15:24:48;95229.00;;;7.94;65.51
40205;BME280;26963;42.666;23.366;2023-03-01T15:27:17;95159.22;;;7.51;65.87
40205;BME280;26963;42.666;23.366;2023-03-01T15:29:50;95184.00;;;7.62;66.46
40205;BME280;26963;42.666;23.366;2023-03-01T15:34:53;95226.59;;;8.13;64.70